Time;durP1;ratioP1;P1;durP2;ratioP2;P2;SDS_P1;SDS_P2;PMS_P1;PMS_P2;Temp;Humidity;BMP_temperature;BMP_pressure;BME280_temperature;BME280_humidity;BME280_pressure;Samples;Min_cycle;Max_cycle;Signal;HPM_P1;HPM_P2
2022/05/11 00:01:56;;;;;;;6.90;5.87;;;20.80;99.90;;;;;;5093920;28;20781;-71
2022/05/11 00:04:23;;;;;;;7.40;6.00;;;20.70;99.90;;;;;;5093779;28;20921;-71
2022/05/11 00:06:49;;;;;;;7.13;6.50;;;20.50;99.90;;;;;;5094179;28;20464;-71
2022/05/11 00:09:17;;;;;;;7.50;6.80;;;20.40;99.90;;;;;;5093844;28;20819;-71
2022/05/11 00:11:44;;;;;;;8.43;7.03;;;20.30;99.90;;;;;;5093719;28;20460;-71
2022/05/11 00:14:12;;;;;;;7.17;6.47;;;20.10;99.90;;;;;;5093906;28;20457;-71
2022/05/11 00:16:41;;;;;;;7.03;6.23;;;20.10;99.90;;;;;;5093859;28;20793;-71
2022/05/11 00:19:07;;;;;;;6.33;5.67;;;20.00;99.90;;;;;;5093698;28;20465;-71
2022/05/11 00:21:34;;;;;;;10.27;6.80;;;20.00;99.90;;;;;;5093819;28;20461;-71
2022/05/11 00:24:01;;;;;;;25.47;22.07;;;19.90;99.90;;;;;;5095462;28;20457;-71
2022/05/11 00:26:28;;;;;;;9.27;8.37;;;19.90;99.90;;;;;;5097306;28;20583;-71
2022/05/11 00:28:55;;;;;;;7.03;6.53;;;19.80;99.90;;;;;;5097102;28;20473;-70
2022/05/11 00:31:21;;;;;;;7.17;6.27;;;19.80;99.90;;;;;;5097284;28;20784;-72
2022/05/11 00:33:49;;;;;;;7.40;6.70;;;19.80;99.90;;;;;;5097442;28;20449;-71
2022/05/11 00:36:16;;;;;;;6.93;6.33;;;19.70;99.90;;;;;;5097132;28;20832;-71
2022/05/11 00:38:44;;;;;;;8.73;7.00;;;19.60;99.90;;;;;;5097111;28;20460;-71
2022/05/11 00:41:11;;;;;;;8.27;7.47;;;19.60;99.90;;;;;;5097064;28;20818;-71
2022/05/11 00:43:39;;;;;;;8.53;6.70;;;19.60;99.90;;;;;;5096597;28;20499;-71
2022/05/11 00:46:15;;;;;;;7.50;6.80;;;19.50;99.90;;;;;;5096706;28;20445;-72
2022/05/11 00:51:35;;;;;;;6.80;6.20;;;19.30;99.90;;;;;;5096850;28;20940;-73
2022/05/11 00:54:05;;;;;;;7.10;6.43;;;19.20;99.90;;;;;;5097112;28;20472;-73
2022/05/11 00:56:34;;;;;;;7.03;6.40;;;19.20;99.90;;;;;;5096662;28;20466;-72
2022/05/11 00:59:09;;;;;;;6.90;6.20;;;19.10;99.90;;;;;;5096593;28;20485;-72
2022/05/11 01:01:36;;;;;;;6.43;5.77;;;19.10;99.90;;;;;;5097041;28;20480;-73
2022/05/11 01:04:08;;;;;;;6.60;5.80;;;19.10;99.90;;;;;;5096302;28;20453;-73
2022/05/11 01:06:37;;;;;;;6.97;6.27;;;19.10;99.90;;;;;;5096731;28;20438;-72
2022/05/11 01:09:06;;;;;;;7.07;5.93;;;19.00;99.90;;;;;;5096404;28;20788;-72
2022/05/11 01:11:37;;;;;;;6.77;6.17;;;19.00;99.90;;;;;;5097097;28;20457;-72
2022/05/11 01:14:06;;;;;;;7.20;6.40;;;19.10;99.90;;;;;;5097473;28;20442;-72
2022/05/11 01:16:33;;;;;;;6.90;5.80;;;19.10;99.90;;;;;;5096616;28;20914;-72
2022/05/11 01:19:00;;;;;;;9.53;6.30;;;19.10;99.90;;;;;;5096528;28;20457;-72
2022/05/11 01:21:45;;;;;;;7.30;6.57;;;19.10;99.90;;;;;;5096548;28;20468;-72
2022/05/11 01:24:27;;;;;;;6.30;5.80;;;19.20;99.90;;;;;;5096417;28;20444;-72
2022/05/11 01:26:54;;;;;;;5.40;5.00;;;19.20;99.90;;;;;;5096560;28;20535;-73
2022/05/11 01:29:22;;;;;;;5.83;5.40;;;19.30;99.90;;;;;;5096376;28;20480;-72
2022/05/11 01:31:49;;;;;;;6.63;6.03;;;19.30;99.90;;;;;;5096375;28;20758;-72
2022/05/11 01:34:20;;;;;;;6.40;5.73;;;19.30;99.90;;;;;;5095613;28;20464;-72
2022/05/11 01:36:50;;;;;;;7.40;6.00;;;19.40;99.90;;;;;;5095906;28;20438;-72
2022/05/11 01:39:16;;;;;;;6.83;5.33;;;19.50;99.90;;;;;;5096171;28;20450;-72
2022/05/11 01:41:50;;;;;;;6.20;5.70;;;19.50;99.90;;;;;;5095865;28;20454;-72
2022/05/11 01:44:19;;;;;;;6.40;5.80;;;19.50;99.90;;;;;;5096117;28;20434;-72
2022/05/11 01:46:49;;;;;;;6.37;5.77;;;19.50;99.90;;;;;;5095808;28;20457;-72
2022/05/11 01:49:16;;;;;;;9.03;5.90;;;19.50;99.90;;;;;;5095455;28;20591;-72
2022/05/11 01:51:43;;;;;;;8.33;6.03;;;19.60;99.90;;;;;;5095791;28;20514;-72
2022/05/11 01:54:10;;;;;;;6.50;5.90;;;19.60;99.90;;;;;;5096074;28;20552;-71
2022/05/11 01:56:37;;;;;;;6.63;5.70;;;19.60;99.90;;;;;;5095192;28;20453;-71
2022/05/11 01:59:05;;;;;;;6.80;6.20;;;19.60;99.90;;;;;;5094706;28;20483;-72
2022/05/11 02:01:34;;;;;;;5.80;5.40;;;19.50;99.90;;;;;;5095359;28;20461;-71
2022/05/11 02:04:01;;;;;;;7.17;6.67;;;19.40;99.90;;;;;;5095415;28;20457;-71
2022/05/11 02:09:12;;;;;;;6.67;6.00;;;19.40;99.90;;;;;;5094927;28;20464;-71
2022/05/11 02:11:39;;;;;;;6.53;5.83;;;19.40;99.90;;;;;;5095022;28;20534;-71
2022/05/11 02:14:07;;;;;;;6.13;5.53;;;19.40;99.90;;;;;;5095200;28;20461;-71
2022/05/11 02:16:34;;;;;;;8.77;6.30;;;19.40;99.90;;;;;;5095467;28;20457;-71
2022/05/11 02:19:00;;;;;;;7.03;6.00;;;19.40;99.90;;;;;;5095341;28;20759;-71
2022/05/11 02:21:27;;;;;;;7.00;6.17;;;19.30;99.90;;;;;;5095807;28;20786;-72
2022/05/11 02:23:54;;;;;;;7.13;6.43;;;19.30;99.90;;;;;;5095860;28;20453;-73
2022/05/11 02:26:21;;;;;;;6.73;5.97;;;19.30;99.90;;;;;;5095687;28;20484;-71
2022/05/11 02:28:48;;;;;;;7.03;6.33;;;19.30;99.90;;;;;;5095212;28;20510;-71
2022/05/11 02:31:16;;;;;;;6.83;6.10;;;19.30;99.90;;;;;;5095099;28;20461;-73
2022/05/11 02:33:43;;;;;;;6.90;6.20;;;19.30;99.90;;;;;;5094949;28;20518;-71
2022/05/11 02:36:10;;;;;;;7.60;6.90;;;19.30;99.90;;;;;;5095053;28;20465;-72
2022/05/11 02:38:36;;;;;;;8.57;6.20;;;19.30;99.90;;;;;;5094893;28;20457;-73
2022/05/11 02:41:05;;;;;;;6.67;5.97;;;19.30;99.90;;;;;;5094811;28;20593;-72
2022/05/11 02:43:32;;;;;;;7.27;6.17;;;19.30;99.90;;;;;;5095473;28;20545;-72
2022/05/11 02:46:00;;;;;;;8.40;7.53;;;19.30;99.90;;;;;;5093851;28;20497;-72
2022/05/11 02:48:31;;;;;;;9.57;8.53;;;19.20;99.90;;;;;;5094518;28;20453;-72
2022/05/11 02:50:58;;;;;;;6.30;5.80;;;19.20;99.90;;;;;;5094157;28;21009;-72
2022/05/11 02:53:27;;;;;;;6.67;6.03;;;19.20;99.90;;;;;;5094729;28;20824;-72
2022/05/11 02:55:56;;;;;;;7.10;6.50;;;19.20;99.90;;;;;;5094504;28;20465;-72
2022/05/11 02:58:28;;;;;;;6.53;6.03;;;19.10;99.90;;;;;;5094370;28;20908;-72
2022/05/11 03:00:58;;;;;;;7.50;6.70;;;19.10;99.90;;;;;;5094411;28;20506;-72
2022/05/11 03:03:25;;;;;;;6.60;6.10;;;19.00;99.90;;;;;;5094221;28;20449;-72
2022/05/11 03:05:53;;;;;;;6.53;5.80;;;19.00;99.90;;;;;;5094537;28;20514;-72
2022/05/11 03:08:21;;;;;;;6.80;6.17;;;19.00;99.90;;;;;;5094203;28;20917;-72
2022/05/11 03:10:48;;;;;;;7.13;6.53;;;19.00;99.90;;;;;;5094047;28;20568;-72
2022/05/11 03:13:15;;;;;;;8.33;7.63;;;19.00;99.90;;;;;;5093323;28;20461;-71
2022/05/11 03:15:42;;;;;;;7.77;7.13;;;18.90;99.90;;;;;;5092870;28;20552;-72
2022/05/11 03:18:10;;;;;;;8.37;7.57;;;18.90;99.90;;;;;;5093243;28;20457;-71
2022/05/11 03:20:36;;;;;;;7.90;6.93;;;18.80;99.90;;;;;;5093243;28;20536;-73
2022/05/11 03:23:04;;;;;;;8.00;7.10;;;18.70;99.90;;;;;;5093616;28;20453;-72
2022/05/11 03:25:31;;;;;;;9.97;8.40;;;18.60;99.90;;;;;;5093643;28;20487;-72
2022/05/11 03:27:58;;;;;;;8.70;6.90;;;18.60;99.90;;;;;;5093044;28;20456;-72
2022/05/11 03:30:25;;;;;;;8.10;7.33;;;18.50;99.90;;;;;;5093079;28;20493;-72
2022/05/11 03:35:36;;;;;;;6.97;6.27;;;18.50;99.90;;;;;;5092822;28;20471;-72
2022/05/11 03:38:05;;;;;;;6.80;6.20;;;18.50;99.90;;;;;;5092886;28;20532;-72
2022/05/11 03:40:32;;;;;;;7.47;6.80;;;18.50;99.90;;;;;;5092689;28;20870;-72
2022/05/11 03:42:58;;;;;;;8.50;6.90;;;18.60;99.90;;;;;;5092879;28;20578;-72
2022/05/11 03:45:26;;;;;;;8.13;7.30;;;18.60;99.90;;;;;;5092925;28;20460;-72
2022/05/11 03:47:53;;;;;;;8.10;7.30;;;18.50;99.90;;;;;;5092836;28;20449;-72
2022/05/11 03:50:25;;;;;;;10.50;6.83;;;18.50;99.90;;;;;;5092584;28;20477;-72
2022/05/11 03:52:53;;;;;;;9.90;8.33;;;18.40;99.90;;;;;;5092873;28;20487;-72
2022/05/11 03:55:23;;;;;;;7.33;6.70;;;18.60;99.90;;;;;;5092439;28;20613;-72
2022/05/11 03:57:50;;;;;;;7.90;7.13;;;18.60;99.90;;;;;;5092251;28;20461;-72
2022/05/11 04:00:20;;;;;;;8.87;7.83;;;18.60;99.90;;;;;;5096462;28;20816;-72
2022/05/11 04:02:48;;;;;;;9.40;6.30;;;18.50;99.90;;;;;;5096803;28;20502;-72
2022/05/11 04:05:16;;;;;;;11.17;9.87;;;18.60;99.90;;;;;;5096721;28;20468;-72
2022/05/11 04:07:43;;;;;;;7.87;7.17;;;18.60;99.90;;;;;;5096443;28;20518;-72
2022/05/11 04:10:11;;;;;;;7.90;7.20;;;18.60;99.90;;;;;;5096599;28;20485;-72
2022/05/11 04:12:40;;;;;;;8.43;7.43;;;18.60;99.90;;;;;;5097089;28;20453;-72
2022/05/11 04:15:08;;;;;;;9.87;8.47;;;18.70;99.90;;;;;;5097488;28;20472;-72
2022/05/11 04:17:35;;;;;;;10.03;9.07;;;18.70;99.90;;;;;;5097343;28;21038;-72
2022/05/11 04:20:02;;;;;;;13.93;12.43;;;18.70;99.90;;;;;;5097184;28;20492;-72
2022/05/11 04:22:29;;;;;;;14.53;9.73;;;18.80;99.90;;;;;;5097437;28;20514;-72
2022/05/11 04:24:56;;;;;;;8.87;8.10;;;18.70;99.90;;;;;;5097418;28;20467;-71
2022/05/11 04:27:24;;;;;;;10.47;9.47;;;18.80;99.90;;;;;;5097138;28;20457;-73
2022/05/11 04:29:52;;;;;;;18.83;16.90;;;18.80;99.90;;;;;;5097149;28;20477;-72
2022/05/11 04:32:19;;;;;;;15.53;13.93;;;18.80;99.90;;;;;;5097183;28;20514;-72
2022/05/11 04:34:45;;;;;;;14.67;13.20;;;18.80;99.90;;;;;;5097543;28;20458;-72
2022/05/11 04:37:12;;;;;;;16.17;14.40;;;18.90;99.90;;;;;;5097290;28;20491;-72
2022/05/11 04:39:40;;;;;;;18.97;17.27;;;18.90;99.90;;;;;;5097012;28;20467;-72
2022/05/11 04:42:07;;;;;;;10.63;9.53;;;18.90;99.90;;;;;;5096738;28;20555;-72
2022/05/11 04:44:34;;;;;;;43.10;37.27;;;19.00;99.90;;;;;;5097015;28;20453;-73
2022/05/11 04:47:07;;;;;;;18.80;16.93;;;19.00;99.90;;;;;;5096853;28;20461;-70
2022/05/11 04:49:34;;;;;;;12.13;11.13;;;19.10;99.90;;;;;;5096817;28;20438;-72
2022/05/11 04:52:03;;;;;;;11.07;9.90;;;19.10;99.90;;;;;;5096540;28;20464;-72
2022/05/11 04:54:30;;;;;;;13.37;11.90;;;19.20;99.90;;;;;;5096895;28;20489;-72
2022/05/11 04:56:56;;;;;;;11.53;10.17;;;19.20;99.90;;;;;;5096737;28;20457;-72
2022/05/11 04:59:23;;;;;;;11.43;9.97;;;19.20;99.90;;;;;;5096621;28;20591;-72
2022/05/11 05:01:51;;;;;;;10.43;9.53;;;19.10;99.90;;;;;;5096580;28;20453;-72
2022/05/11 05:04:20;;;;;;;9.87;8.87;;;19.10;99.90;;;;;;5096116;28;20838;-72
2022/05/11 05:06:46;;;;;;;9.30;8.40;;;19.10;99.90;;;;;;5096523;28;20832;-72
2022/05/11 05:09:13;;;;;;;10.00;9.10;;;19.10;99.90;;;;;;5096148;28;20453;-72
2022/05/11 05:11:40;;;;;;;10.47;9.57;;;19.10;99.90;;;;;;5096169;28;20485;-72
2022/05/11 05:14:06;;;;;;;9.70;8.90;;;19.10;99.90;;;;;;5096023;28;20457;-72
2022/05/11 05:16:34;;;;;;;10.87;9.53;;;19.10;99.90;;;;;;5096228;28;20925;-73
2022/05/11 05:19:01;;;;;;;17.93;16.13;;;19.10;99.90;;;;;;5096300;28;20476;-73
2022/05/11 05:21:29;;;;;;;11.90;10.70;;;19.10;99.90;;;;;;5096137;28;20469;-72
2022/05/11 05:23:56;;;;;;;10.67;9.67;;;19.00;99.90;;;;;;5096963;28;20741;-73
2022/05/11 05:26:22;;;;;;;14.43;10.70;;;19.00;99.90;;;;;;5096449;28;20472;-72
2022/05/11 05:31:33;;;;;;;11.00;10.00;;;19.00;99.90;;;;;;5097163;28;20468;-72
2022/05/11 05:34:00;;;;;;;11.17;9.73;;;19.00;99.90;;;;;;5096684;28;20464;-71
2022/05/11 05:36:29;;;;;;;12.13;10.33;;;19.10;99.90;;;;;;5095947;28;20929;-72
2022/05/11 05:38:57;;;;;;;9.90;9.00;;;19.10;99.90;;;;;;5095849;28;20493;-72
2022/05/11 05:41:25;;;;;;;9.93;9.03;;;19.20;99.90;;;;;;5095809;28;20460;-72
2022/05/11 05:43:53;;;;;;;11.17;10.17;;;19.20;99.90;;;;;;5095685;28;20454;-72
2022/05/11 05:46:20;;;;;;;13.07;9.77;;;19.20;99.90;;;;;;5095758;28;20465;-73
2022/05/11 05:48:47;;;;;;;10.83;9.73;;;19.30;99.90;;;;;;5095786;28;20453;-72
2022/05/11 05:51:16;;;;;;;12.43;10.20;;;19.40;99.90;;;;;;5095197;28;20477;-72
2022/05/11 05:53:44;;;;;;;10.77;8.97;;;19.40;99.90;;;;;;5095585;28;20464;-72
2022/05/11 05:56:13;;;;;;;10.90;9.80;;;19.40;99.90;;;;;;5095469;28;20567;-72
2022/05/11 05:58:40;;;;;;;10.20;9.17;;;19.40;99.90;;;;;;5095577;28;20823;-72
2022/05/11 06:01:07;;;;;;;10.20;9.17;;;19.30;99.90;;;;;;5095342;28;20532;-72
2022/05/11 06:03:36;;;;;;;10.63;9.40;;;19.40;99.90;;;;;;5095683;28;20465;-72
2022/05/11 06:06:04;;;;;;;10.80;9.90;;;19.40;99.90;;;;;;5095325;28;20514;-73
2022/05/11 06:08:31;;;;;;;9.80;8.90;;;19.40;99.90;;;;;;5095012;28;20493;-72
2022/05/11 06:10:59;;;;;;;10.10;9.20;;;19.40;99.90;;;;;;5094833;28;20568;-72
2022/05/11 06:13:27;;;;;;;10.50;9.50;;;19.50;99.90;;;;;;5095241;28;20457;-72
2022/05/11 06:15:56;;;;;;;9.77;8.97;;;19.50;99.90;;;;;;5095200;28;20483;-72
2022/05/11 06:18:25;;;;;;;12.10;10.60;;;19.40;99.90;;;;;;5095324;28;20913;-72
2022/05/11 06:20:52;;;;;;;9.80;8.80;;;19.40;99.90;;;;;;5094499;28;20457;-73
2022/05/11 06:23:19;;;;;;;10.70;9.60;;;19.30;99.90;;;;;;5095063;28;20460;-72
2022/05/11 06:25:49;;;;;;;11.03;9.47;;;19.30;99.90;;;;;;5095352;28;20758;-72
2022/05/11 06:28:17;;;;;;;10.57;9.47;;;19.30;99.90;;;;;;5095062;28;20453;-72
2022/05/11 06:30:44;;;;;;;9.37;8.60;;;19.30;99.90;;;;;;5095084;28;20495;-71
2022/05/11 06:33:11;;;;;;;10.33;9.03;;;19.40;99.90;;;;;;5095311;28;20453;-73
2022/05/11 06:35:37;;;;;;;9.53;8.50;;;19.40;99.90;;;;;;5094593;28;20464;-73
2022/05/11 06:38:08;;;;;;;9.97;8.97;;;19.50;99.90;;;;;;5094902;28;20461;-73
2022/05/11 06:40:35;;;;;;;9.80;8.80;;;19.70;99.90;;;;;;5094768;28;20453;-73
2022/05/11 06:43:03;;;;;;;11.20;9.33;;;19.70;99.90;;;;;;5094738;28;20465;-71
2022/05/11 06:45:31;;;;;;;9.33;8.47;;;19.80;99.90;;;;;;5094558;28;20789;-73
2022/05/11 06:47:59;;;;;;;9.83;8.93;;;19.80;99.90;;;;;;5094768;28;20555;-72
2022/05/11 06:50:27;;;;;;;10.93;8.47;;;19.80;99.90;;;;;;5093961;28;21047;-72
2022/05/11 06:52:54;;;;;;;10.23;9.30;;;19.80;99.90;;;;;;5094274;28;20459;-73
2022/05/11 07:00:51;;;;;;;10.77;9.67;;;19.90;99.90;;;;;;5094129;28;20417;-73
2022/05/11 07:03:18;;;;;;;12.13;9.00;;;19.90;99.90;;;;;;5094318;28;20453;-72
2022/05/11 07:05:46;;;;;;;10.27;9.10;;;20.00;99.90;;;;;;5094522;28;20788;-71
2022/05/11 07:08:14;;;;;;;9.73;8.83;;;20.10;99.90;;;;;;5094163;28;20513;-73
2022/05/11 07:10:43;;;;;;;9.30;8.23;;;20.20;99.90;;;;;;5098335;28;20465;-73
2022/05/11 07:13:09;;;;;;;9.27;8.37;;;20.20;99.90;;;;;;5098429;28;20685;-72
2022/05/11 07:15:36;;;;;;;11.60;9.50;;;20.30;99.90;;;;;;5094363;28;20803;-73
2022/05/11 07:18:05;;;;;;;11.43;8.80;;;20.30;99.90;;;;;;5094701;28;20804;-72
2022/05/11 07:20:36;;;;;;;8.90;8.10;;;20.40;99.90;;;;;;5094470;28;20463;-72
2022/05/11 07:23:05;;;;;;;8.80;7.90;;;20.40;99.90;;;;;;5094071;28;20866;-72
2022/05/11 07:25:32;;;;;;;8.90;7.93;;;20.40;99.90;;;;;;5093877;28;20461;-72
2022/05/11 07:28:00;;;;;;;8.90;8.10;;;20.40;99.90;;;;;;5094295;28;20820;-72
2022/05/11 07:30:30;;;;;;;9.87;7.63;;;20.50;99.90;;;;;;5093926;28;20465;-72
2022/05/11 07:32:57;;;;;;;13.40;8.30;;;20.50;99.90;;;;;;5095899;28;20493;-72
2022/05/11 07:35:25;;;;;;;10.90;8.70;;;20.50;99.90;;;;;;5098803;28;20464;-72
2022/05/11 07:37:52;;;;;;;8.50;7.70;;;20.60;99.90;;;;;;5098480;28;20785;-72
2022/05/11 07:40:20;;;;;;;12.50;7.83;;;20.60;99.90;;;;;;5098296;28;20484;-72
2022/05/11 07:42:47;;;;;;;7.90;7.20;;;20.60;99.90;;;;;;5097984;28;20919;-72
2022/05/11 07:45:16;;;;;;;12.00;8.93;;;20.70;99.90;;;;;;5097789;28;20463;-72
2022/05/11 07:47:43;;;;;;;8.70;6.97;;;20.90;99.90;;;;;;5097761;28;20457;-73
2022/05/11 07:50:13;;;;;;;7.10;6.50;;;21.10;99.90;;;;;;5097443;28;20560;-73
2022/05/11 07:52:42;;;;;;;7.10;6.40;;;21.20;99.90;;;;;;5098031;28;20477;-73
2022/05/11 07:55:08;;;;;;;6.50;6.00;;;21.30;99.90;;;;;;5097701;28;20463;-73
2022/05/11 08:00:21;;;;;;;9.30;6.63;;;21.30;99.90;;;;;;5099042;28;20432;-72
2022/05/11 08:02:48;;;;;;;7.40;6.70;;;21.30;99.90;;;;;;5097753;28;20854;-73
2022/05/11 08:05:16;;;;;;;7.50;6.70;;;21.40;99.90;;;;;;5097370;28;20522;-73
2022/05/11 08:07:47;;;;;;;8.00;7.10;;;21.50;99.90;;;;;;5097622;28;20579;-73
2022/05/11 08:10:16;;;;;;;10.77;7.60;;;21.60;99.90;;;;;;5097720;28;20764;-72
2022/05/11 08:12:43;;;;;;;6.90;6.30;;;21.60;99.90;;;;;;5097847;28;20509;-72
2022/05/11 08:15:11;;;;;;;6.70;6.13;;;21.60;99.90;;;;;;5097411;28;20793;-72
2022/05/11 08:17:38;;;;;;;7.10;6.00;;;21.60;99.90;;;;;;5097177;28;20457;-73
2022/05/11 08:20:08;;;;;;;6.50;5.93;;;21.70;99.90;;;;;;5097266;28;20461;-72
2022/05/11 08:22:35;;;;;;;7.70;6.00;;;21.70;99.90;;;;;;5096859;28;20464;-73
2022/05/11 08:25:04;;;;;;;16.63;5.60;;;21.80;99.90;;;;;;5096907;28;20453;-72
2022/05/11 08:27:31;;;;;;;5.90;5.40;;;21.80;99.90;;;;;;5097038;28;20461;-73
2022/05/11 08:35:27;;;;;;;8.60;6.23;;;22.10;99.90;;;;;;5097106;28;20452;-73
2022/05/11 08:37:54;;;;;;;5.90;5.40;;;22.10;99.90;;;;;;5096954;28;20453;-73
2022/05/11 08:40:29;;;;;;;8.77;6.73;;;22.10;99.90;;;;;;5097013;28;20453;-73
2022/05/11 08:42:57;;;;;;;6.40;5.90;;;22.20;99.90;;;;;;5097708;28;20437;-73
2022/05/11 08:45:28;;;;;;;7.73;6.00;;;22.20;99.90;;;;;;5097486;28;20449;-73
2022/05/11 08:47:55;;;;;;;7.33;6.73;;;22.30;99.90;;;;;;5096551;28;20915;-73
2022/05/11 08:50:26;;;;;;;6.47;5.97;;;22.40;99.90;;;;;;5096577;28;20468;-74
2022/05/11 08:52:59;;;;;;;7.33;6.33;;;22.50;99.90;;;;;;5097260;28;20513;-73
2022/05/11 08:55:37;;;;;;;8.40;6.87;;;22.50;99.90;;;;;;5096742;28;20441;-73
2022/05/11 08:58:09;;;;;;;6.27;5.77;;;22.70;99.90;;;;;;5097760;28;20493;-72
2022/05/11 09:00:39;;;;;;;7.40;6.70;;;22.90;99.90;;;;;;5096469;28;20526;-72
2022/05/11 09:03:11;;;;;;;7.67;6.67;;;23.10;99.90;;;;;;5096032;28;20503;-72
2022/05/11 09:05:38;;;;;;;7.97;6.77;;;23.20;99.90;;;;;;5096698;28;20796;-72
2022/05/11 09:08:08;;;;;;;8.17;7.37;;;23.40;99.90;;;;;;5096662;28;20472;-72
2022/05/11 09:10:38;;;;;;;9.27;6.73;;;23.50;99.90;;;;;;5096628;28;20465;-73
2022/05/11 09:13:10;;;;;;;8.37;7.37;;;23.60;99.90;;;;;;5096092;28;20462;-73
2022/05/11 09:15:56;;;;;;;6.83;6.23;;;23.80;99.90;;;;;;5096414;28;20821;-73
2022/05/11 09:18:33;;;;;;;8.10;7.40;;;23.90;99.90;;;;;;5096487;28;20458;-73
2022/05/11 09:21:01;;;;;;;7.37;6.80;;;23.90;99.90;;;;;;5095979;28;20469;-72
2022/05/11 09:23:31;;;;;;;7.27;6.57;;;23.70;99.90;;;;;;5095939;28;20457;-73
2022/05/11 09:26:02;;;;;;;8.13;7.33;;;23.60;99.90;;;;;;5096212;28;20856;-73
2022/05/11 09:28:31;;;;;;;10.00;7.67;;;23.60;99.90;;;;;;5096158;28;20809;-73
2022/05/11 09:31:01;;;;;;;8.70;7.63;;;23.70;99.90;;;;;;5095848;28;20468;-73
2022/05/11 09:33:30;;;;;;;9.23;7.63;;;23.80;99.90;;;;;;5096124;28;20457;-73
2022/05/11 09:36:02;;;;;;;11.97;8.20;;;24.00;99.90;;;;;;5096133;28;20472;-72
2022/05/11 09:38:35;;;;;;;12.40;8.20;;;24.10;99.90;;;;;;5095365;28;20442;-72
2022/05/11 09:41:12;;;;;;;8.50;7.90;;;24.20;99.90;;;;;;5095830;28;20437;-73
2022/05/11 09:43:43;;;;;;;9.53;7.80;;;24.30;99.90;;;;;;5095367;28;20471;-72
2022/05/11 09:46:20;;;;;;;9.03;8.13;;;24.30;99.90;;;;;;5095476;28;20438;-73
2022/05/11 09:49:05;;;;;;;10.93;8.10;;;24.40;99.90;;;;;;5095388;28;20461;-74
2022/05/11 09:51:40;;;;;;;8.47;7.73;;;24.40;99.90;;;;;;5095658;28;20465;-75
2022/05/11 09:54:21;;;;;;;9.10;8.20;;;24.50;99.90;;;;;;5096036;28;20445;-75
2022/05/11 09:56:59;;;;;;;11.77;7.90;;;24.60;99.90;;;;;;5095743;28;20544;-75
2022/05/11 09:59:28;;;;;;;9.40;8.50;;;24.80;99.90;;;;;;5095798;28;20485;-76
2022/05/11 10:02:03;;;;;;;9.10;8.40;;;25.00;99.90;;;;;;5095545;28;20453;-76
2022/05/11 10:04:35;;;;;;;8.93;8.23;;;25.00;99.90;;;;;;5095749;28;20480;-76
2022/05/11 10:07:04;;;;;;;8.93;8.23;;;25.00;99.90;;;;;;5095802;28;20448;-75
2022/05/11 10:09:33;;;;;;;9.53;8.40;;;25.00;99.90;;;;;;5095401;28;20453;-75
2022/05/11 10:12:04;;;;;;;9.13;8.53;;;25.00;99.90;;;;;;5095250;28;20469;-76
2022/05/11 10:23:02;;;;;;;8.63;7.83;;;24.70;99.90;;;;;;5096437;28;20425;-75
2022/05/11 10:25:35;;;;;;;7.97;7.27;;;24.70;99.90;;;;;;5097010;28;20540;-75
2022/05/11 10:28:16;;;;;;;8.07;7.27;;;24.80;99.90;;;;;;5096657;28;20537;-76
2022/05/11 10:30:50;;;;;;;8.17;7.47;;;24.90;99.90;;;;;;5095251;28;20441;-75
2022/05/11 10:33:34;;;;;;;9.80;6.60;;;25.00;99.90;;;;;;5094758;28;20656;-75
2022/05/11 10:36:05;;;;;;;8.13;6.87;;;25.10;99.90;;;;;;5094664;28;20890;-74
2022/05/11 10:38:45;;;;;;;10.87;7.40;;;25.40;99.90;;;;;;5095245;28;20872;-75
2022/05/11 10:41:20;;;;;;;6.70;6.10;;;25.60;99.90;;;;;;5094911;28;20441;-74
2022/05/11 10:44:01;;;;;;;7.80;6.47;;;25.80;99.90;;;;;;5094608;28;20449;-74
2022/05/11 10:46:38;;;;;;;6.70;6.20;;;25.90;99.90;;;;;;5094280;28;20540;-74
2022/05/11 10:49:20;;;;;;;7.13;6.37;;;26.10;99.90;;;;;;5094460;28;20437;-74
2022/05/11 10:51:57;;;;;;;8.13;6.00;;;26.20;99.90;;;;;;5094618;28;20478;-75
2022/05/11 10:54:34;;;;;;;9.53;6.27;;;26.30;99.90;;;;;;5094412;28;20547;-74
2022/05/11 10:57:08;;;;;;;7.30;6.10;;;26.40;99.90;;;;;;5097155;28;20480;-74
2022/05/11 11:00:12;;;;;;;7.13;6.43;;;26.40;99.90;;;;;;5094552;28;20481;-76
2022/05/11 11:03:05;;;;;;;6.60;5.90;;;26.50;99.90;;;;;;5093850;28;20477;-76
2022/05/11 11:05:45;;;;;;;6.50;5.90;;;26.60;99.90;;;;;;5094416;28;20521;-75
2022/05/11 11:08:22;;;;;;;7.83;5.33;;;26.50;99.90;;;;;;5093746;28;20905;-75
2022/05/11 11:10:53;;;;;;;12.50;5.97;;;26.50;99.90;;;;;;5094319;28;20441;-74
2022/05/11 11:13:37;;;;;;;12.30;5.57;;;26.40;99.90;;;;;;5094088;28;20477;-74
2022/05/11 11:16:06;;;;;;;7.63;5.27;;;26.40;99.90;;;;;;5096337;28;20510;-75
2022/05/11 11:18:37;;;;;;;6.47;4.70;;;26.60;99.90;;;;;;5095234;28;20453;-75
2022/05/11 11:21:09;;;;;;;5.07;4.30;;;27.10;99.90;;;;;;5094429;28;20449;-75
2022/05/11 11:23:38;;;;;;;6.50;5.00;;;27.70;99.90;;;;;;5094379;28;20509;-75
2022/05/11 11:26:08;;;;;;;5.60;5.10;;;27.90;99.90;;;;;;5094304;28;20469;-75
2022/05/11 11:29:05;;;;;;;10.80;5.10;;;27.90;99.90;;;;;;5094147;28;20434;-75
2022/05/11 11:31:32;;;;;;;6.47;5.23;;;27.90;99.60;;;;;;5093365;28;20826;-74
2022/05/11 11:34:27;;;;;;;6.27;5.03;;;27.80;98.00;;;;;;5093999;28;20464;-74
2022/05/11 11:36:55;;;;;;;5.00;4.50;;;27.60;98.50;;;;;;5094702;28;20448;-74
2022/05/11 11:39:52;;;;;;;8.53;4.80;;;28.30;96.70;;;;;;5093973;28;20465;-75
2022/05/11 11:42:35;;;;;;;6.93;5.10;;;29.10;93.80;;;;;;5094132;28;20536;-76
2022/05/11 11:45:03;;;;;;;8.43;4.47;;;29.70;85.30;;;;;;5096158;28;20438;-76
2022/05/11 11:47:42;;;;;;;6.60;4.07;;;30.00;80.80;;;;;;5093512;28;20469;-74
2022/05/11 11:50:45;;;;;;;8.57;3.90;;;30.20;74.70;;;;;;5093797;28;20452;-75
2022/05/11 11:53:21;;;;;;;5.57;3.70;;;30.60;72.10;;;;;;5094138;28;20504;-75
2022/05/11 11:55:49;;;;;;;10.73;4.30;;;30.80;65.80;;;;;;5093880;28;20472;-74
2022/05/11 11:58:26;;;;;;;7.97;4.00;;;31.00;62.20;;;;;;5095622;28;20910;-75
2022/05/11 12:01:00;;;;;;;4.10;3.70;;;31.10;59.00;;;;;;5095727;28;20445;-74
2022/05/11 12:03:30;;;;;;;6.67;3.87;;;30.50;59.50;;;;;;5094544;28;20920;-75
2022/05/11 12:15:01;;;;;;;6.03;4.30;;;30.30;58.70;;;;;;5093838;28;20461;-75
2022/05/11 12:17:08;;;;;;;6.20;3.50;;;31.00;54.80;;;;;;5093720;28;20417;-75
2022/05/11 12:19:36;;;;;;;9.23;3.53;;;30.70;53.90;;;;;;5094589;28;20762;-76
2022/05/11 12:22:12;;;;;;;8.13;3.60;;;30.80;53.50;;;;;;5097811;28;20449;-75
2022/05/11 12:24:40;;;;;;;6.60;3.70;;;30.90;53.90;;;;;;5097405;28;20775;-76
2022/05/11 12:27:12;;;;;;;7.73;3.67;;;31.20;52.10;;;;;;5097316;28;20746;-75
2022/05/11 12:29:57;;;;;;;6.33;4.10;;;31.50;51.30;;;;;;5097540;28;20433;-74
2022/05/11 12:32:28;;;;;;;11.80;3.83;;;31.60;51.50;;;;;;5096851;28;20472;-74
2022/05/11 12:34:55;;;;;;;9.00;4.00;;;31.50;50.80;;;;;;5097924;28;20438;-73
2022/05/11 12:37:26;;;;;;;5.03;3.70;;;31.10;51.30;;;;;;5097063;28;20483;-73
2022/05/11 12:39:58;;;;;;;4.40;4.03;;;31.30;51.00;;;;;;5097043;28;20437;-73
2022/05/11 12:42:36;;;;;;;5.40;3.10;;;31.60;48.50;;;;;;5096909;28;20449;-73
2022/05/11 12:45:05;;;;;;;3.57;3.27;;;31.70;49.20;;;;;;5096863;28;20437;-74
2022/05/11 12:47:32;;;;;;;10.10;4.20;;;32.10;48.30;;;;;;5097839;28;20877;-74
2022/05/11 12:49:59;;;;;;;4.37;3.83;;;32.50;47.10;;;;;;5096910;28;20906;-73
2022/05/11 12:52:28;;;;;;;6.00;3.40;;;32.50;45.80;;;;;;5096798;28;20485;-76
2022/05/11 12:54:58;;;;;;;5.30;3.50;;;32.60;45.20;;;;;;5097279;28;20470;-72
2022/05/11 12:57:26;;;;;;;7.50;3.90;;;32.50;45.10;;;;;;5096432;28;20894;-72
2022/05/11 12:59:55;;;;;;;5.40;3.57;;;32.60;45.00;;;;;;5096567;28;20453;-72
2022/05/11 13:02:26;;;;;;;5.67;3.70;;;32.70;45.10;;;;;;5096185;28;20504;-76
2022/05/11 13:04:55;;;;;;;4.73;3.20;;;32.50;44.80;;;;;;5096945;28;20453;-75
2022/05/11 13:07:25;;;;;;;5.37;3.30;;;32.20;45.10;;;;;;5096213;28;20760;-75
2022/05/11 13:09:56;;;;;;;4.83;3.63;;;32.20;45.60;;;;;;5095845;28;20454;-74
2022/05/11 13:12:23;;;;;;;3.97;3.53;;;32.40;44.80;;;;;;5095975;28;20489;-75
2022/05/11 13:14:52;;;;;;;5.30;3.40;;;32.00;44.30;;;;;;5096372;28;20514;-72
2022/05/11 13:17:21;;;;;;;5.90;3.47;;;31.80;44.10;;;;;;5095936;28;21015;-74
2022/05/11 13:19:55;;;;;;;5.40;3.30;;;31.90;44.70;;;;;;5096173;28;20461;-73
2022/05/11 13:22:24;;;;;;;8.80;4.10;;;31.80;44.70;;;;;;5095991;28;20438;-73
2022/05/11 13:24:55;;;;;;;8.27;3.53;;;31.90;44.90;;;;;;5095877;28;20458;-74
2022/05/11 13:27:34;;;;;;;4.23;3.60;;;31.80;44.90;;;;;;5095595;28;20457;-73
2022/05/11 13:30:15;;;;;;;8.37;3.33;;;31.20;44.80;;;;;;5095342;28;20449;-74
2022/05/11 13:32:45;;;;;;;8.33;3.93;;;30.80;45.20;;;;;;5096358;28;20918;-74
2022/05/11 13:35:19;;;;;;;4.03;3.63;;;31.00;46.30;;;;;;5097525;28;20800;-74
2022/05/11 13:37:56;;;;;;;7.77;3.70;;;31.30;45.50;;;;;;5095541;28;20469;-73
2022/05/11 13:40:29;;;;;;;5.20;3.33;;;31.30;45.00;;;;;;5095636;28;20437;-73